KMFE/MFE METAR and TAF weather

Enter ICAO airport designator
Station Type Date Time Source
KMFE METAR 2019/02/16 06:53 UTC NOAA

KMFE 160653Z AUTO 16013KT 5SM BR OVC007 23/21 A2977 RMK AO2 SLP080 T02280211


Station Type Date Time Source
KMFE Decoded METAR 2019/02/16 06:53 UTC NOAA

MCALLEN MILLER INTERNATIONAL AIRPORT , TX, United States (KMFE) 26-11N 98-15W 38M
Feb 16, 2019 - 01:53 AM EST / 2019.02.16 0653 UTC
Wind: from the SSE (160 degrees) at 15 MPH (13 KT):0
Visibility: 5 mile(s):0
Sky conditions: overcast
Weather: mist
Temperature: 73.0 F (22.8 C)
Dew Point: 70.0 F (21.1 C)
Relative Humidity: 90%
Pressure (altimeter): 29.77 in. Hg (1008 hPa)
ob: KMFE 160653Z AUTO 16013KT 5SM BR OVC007 23/21 A2977 RMK AO2 SLP080 T02280211
cycle: 7

Station Type Date Time Source
KMFE TAF 2019/02/16 06:39 UTC NOAA

TAF KMFE 160537Z 1606/1706 15012KT 4SM BR OVC007
FM161100 18005KT 4SM BR OVC003
TEMPO 1611/1613 1SM BR
FM161500 17009KT 6SM BR BKN012
FM161800 16013KT P6SM SCT250
FM170200 16010KT P6SM OVC012


Example: see airport list